createdAt,value
2018-07-31T00:01:20.113Z,99100.98
2018-07-31T00:03:47.994Z,99104.02
2018-07-31T00:06:17.866Z,99111.59
2018-07-31T00:08:47.132Z,99105.88
2018-07-31T00:11:15.063Z,99105.20
2018-07-31T00:13:42.986Z,99104.56
2018-07-31T00:16:11.542Z,99102.19
2018-07-31T00:18:39.493Z,99096.80
2018-07-31T00:21:07.635Z,99098.48
2018-07-31T00:23:36.696Z,99096.30
2018-07-31T00:26:04.875Z,99088.23
2018-07-31T00:28:32.719Z,99085.38
2018-07-31T00:31:00.880Z,99087.74
2018-07-31T00:33:28.685Z,99092.44
2018-07-31T00:35:56.637Z,99095.78
2018-07-31T00:38:24.856Z,99096.31
2018-07-31T00:40:52.867Z,99098.16
2018-07-31T00:43:20.777Z,99095.47
2018-07-31T00:45:48.758Z,99090.23
2018-07-31T00:48:16.796Z,99093.77
2018-07-31T00:50:45.050Z,99098.49
2018-07-31T00:53:13.079Z,99098.31
2018-07-31T00:55:40.904Z,99093.42
2018-07-31T00:58:08.744Z,99095.47
2018-07-31T01:00:37.061Z,99102.84
2018-07-31T01:03:05.097Z,99101.32
2018-07-31T01:05:33.014Z,99096.62
2018-07-31T01:08:00.950Z,99098.80
2018-07-31T01:10:28.998Z,99100.48
2018-07-31T01:12:57.376Z,99101.87
2018-07-31T01:15:25.375Z,99097.97
2018-07-31T01:17:53.424Z,99100.20
2018-07-31T01:20:21.484Z,99093.96
2018-07-31T01:22:49.686Z,99098.52
2018-07-31T01:25:17.734Z,99095.81
2018-07-31T01:27:45.554Z,99092.13
2018-07-31T01:30:13.577Z,99095.50
2018-07-31T01:32:41.514Z,99093.13
2018-07-31T01:35:09.509Z,99092.98
2018-07-31T01:37:37.616Z,99092.30
2018-07-31T01:40:05.489Z,99090.61
2018-07-31T01:42:33.351Z,99086.56
2018-07-31T01:45:01.384Z,99093.47
2018-07-31T01:47:29.319Z,99090.44
2018-07-31T01:49:57.255Z,99093.13
2018-07-31T01:52:25.371Z,99094.13
2018-07-31T01:54:53.371Z,99096.16
2018-07-31T01:57:21.380Z,99094.16
2018-07-31T01:59:49.326Z,99092.44
2018-07-31T02:02:17.300Z,99098.16
2018-07-31T02:04:45.283Z,99099.86
2018-07-31T02:07:13.331Z,99098.37
2018-07-31T02:09:41.463Z,99100.88
2018-07-31T02:12:09.547Z,99099.88
2018-07-31T02:14:37.587Z,99096.19
2018-07-31T02:17:05.811Z,99102.23
2018-07-31T02:19:34.051Z,99097.86
2018-07-31T02:22:02.667Z,99092.66
2018-07-31T02:24:30.619Z,99093.66
2018-07-31T02:26:58.841Z,99093.50
2018-07-31T02:29:35.636Z,99088.59
2018-07-31T02:32:03.667Z,99096.98
2018-07-31T02:34:31.724Z,99093.28
2018-07-31T02:37:00.151Z,99093.97
2018-07-31T02:39:28.054Z,99089.58
2018-07-31T02:41:56.120Z,99098.83
2018-07-31T02:44:24.239Z,99101.19
2018-07-31T02:46:52.532Z,99104.89
2018-07-31T02:49:21.077Z,99095.48
2018-07-31T02:51:50.537Z,99102.19
2018-07-31T02:54:19.735Z,99106.39
2018-07-31T02:56:47.811Z,99112.41
2018-07-31T02:59:15.906Z,99112.75
2018-07-31T03:01:44.049Z,99117.29
2018-07-31T03:04:12.029Z,99107.88
2018-07-31T03:06:40.212Z,99109.39
2018-07-31T03:09:15.616Z,99110.05
2018-07-31T03:11:44.796Z,99114.77
2018-07-31T03:14:15.963Z,99118.47
2018-07-31T03:16:44.179Z,99118.77
2018-07-31T03:19:17.398Z,99115.24
2018-07-31T03:21:51.846Z,99118.27
2018-07-31T03:24:19.982Z,99114.57
2018-07-31T03:26:48.033Z,99123.98
2018-07-31T03:29:15.956Z,99120.79
2018-07-31T03:31:49.503Z,99129.70
2018-07-31T03:34:18.033Z,99129.03
2018-07-31T03:36:52.706Z,99133.06
2018-07-31T03:39:24.080Z,99136.09
2018-07-31T03:41:51.957Z,99139.65
2018-07-31T03:44:20.114Z,99139.48
2018-07-31T03:46:48.264Z,99141.86
2018-07-31T03:49:19.600Z,99138.50
2018-07-31T03:51:51.383Z,99139.67
2018-07-31T03:54:19.272Z,99140.20
2018-07-31T03:56:47.351Z,99144.41
2018-07-31T03:59:15.871Z,99144.58
2018-07-31T04:01:43.930Z,99149.96
2018-07-31T04:04:11.907Z,99141.21
2018-07-31T04:06:39.803Z,99144.23
2018-07-31T04:09:09.823Z,99144.26
2018-07-31T04:11:37.887Z,99143.39
2018-07-31T04:14:06.074Z,99139.54
2018-07-31T04:16:34.188Z,99136.54
2018-07-31T04:19:02.158Z,99138.38
2018-07-31T04:21:30.064Z,99137.23
2018-07-31T04:23:58.338Z,99139.61
2018-07-31T04:26:26.189Z,99142.14
2018-07-31T04:28:54.575Z,99136.41
2018-07-31T04:31:22.512Z,99143.97
2018-07-31T04:33:50.547Z,99146.33
2018-07-31T04:36:20.538Z,99140.63
2018-07-31T04:38:48.613Z,99146.17
2018-07-31T04:41:16.815Z,99144.31
2018-07-31T04:43:44.836Z,99137.41
2018-07-31T04:46:12.970Z,99141.12
2018-07-31T04:48:40.949Z,99137.72
2018-07-31T04:51:08.899Z,99143.63
2018-07-31T04:53:36.838Z,99143.27
2018-07-31T04:56:04.984Z,99145.64
2018-07-31T04:58:33.411Z,99139.25
2018-07-31T05:01:01.420Z,99150.38
2018-07-31T05:03:29.498Z,99148.83
2018-07-31T05:05:57.624Z,99144.95
2018-07-31T05:08:25.742Z,99142.08
2018-07-31T05:10:53.596Z,99146.81
2018-07-31T05:13:21.683Z,99144.95
2018-07-31T05:15:49.660Z,99152.71
2018-07-31T05:18:17.957Z,99149.84
2018-07-31T05:20:46.476Z,99155.92
2018-07-31T05:23:14.479Z,99152.53
2018-07-31T05:25:42.454Z,99153.53
2018-07-31T05:28:10.433Z,99152.86
2018-07-31T05:30:38.517Z,99161.77
2018-07-31T05:33:06.515Z,99157.05
2018-07-31T05:35:34.823Z,99165.12
2018-07-31T05:38:02.903Z,99166.61
2018-07-31T05:40:31.959Z,99169.41
2018-07-31T05:43:00.062Z,99172.72
2018-07-31T05:45:28.122Z,99177.58
2018-07-31T05:47:56.127Z,99180.75
2018-07-31T05:50:23.954Z,99182.91
2018-07-31T05:52:51.878Z,99184.36
2018-07-31T05:55:19.751Z,99188.74
2018-07-31T05:57:47.579Z,99191.73
2018-07-31T06:00:15.376Z,99183.58
2018-07-31T06:02:43.124Z,99184.89
2018-07-31T06:05:10.904Z,99185.45
2018-07-31T06:07:38.847Z,99175.78
2018-07-31T06:10:07.456Z,99182.06
2018-07-31T06:12:35.390Z,99180.44
2018-07-31T06:15:03.476Z,99180.33
2018-07-31T06:17:31.467Z,99176.41
2018-07-31T06:19:59.399Z,99176.33
2018-07-31T06:22:27.191Z,99180.45
2018-07-31T06:24:55.125Z,99175.34
2018-07-31T06:27:23.506Z,99179.18
2018-07-31T06:29:51.352Z,99179.98
2018-07-31T06:32:19.178Z,99186.41
2018-07-31T06:34:47.174Z,99184.34
2018-07-31T06:37:15.044Z,99184.21
2018-07-31T06:39:42.918Z,99190.72
2018-07-31T06:42:10.891Z,99186.85
2018-07-31T06:44:38.730Z,99191.06
2018-07-31T06:47:06.576Z,99188.24
2018-07-31T06:49:34.777Z,99188.33
2018-07-31T06:52:02.636Z,99192.96
2018-07-31T06:54:30.420Z,99187.66
2018-07-31T06:56:58.355Z,99184.64
2018-07-31T06:59:26.287Z,99185.55
2018-07-31T07:01:54.188Z,99185.81
2018-07-31T07:04:21.967Z,99184.08
2018-07-31T07:06:49.650Z,99187.46
2018-07-31T07:09:18.101Z,99185.77
2018-07-31T07:11:46.096Z,99189.39
2018-07-31T07:14:13.970Z,99188.02
2018-07-31T07:16:41.865Z,99187.19
2018-07-31T07:19:09.852Z,99191.70
2018-07-31T07:21:37.664Z,99190.26
2018-07-31T07:24:05.486Z,99193.33
2018-07-31T07:26:33.430Z,99192.50
2018-07-31T07:29:01.363Z,99190.44
2018-07-31T07:31:29.329Z,99196.09
2018-07-31T07:33:57.716Z,99203.44
2018-07-31T07:36:25.411Z,99201.98
2018-07-31T07:38:53.159Z,99202.11
2018-07-31T07:41:21.343Z,99208.08
2018-07-31T07:43:49.153Z,99206.89
2018-07-31T07:46:16.976Z,99209.53
2018-07-31T07:48:44.871Z,99218.06
2018-07-31T07:51:12.691Z,99207.73
2018-07-31T07:53:40.414Z,99211.48
2018-07-31T07:56:08.265Z,99212.47
2018-07-31T07:58:36.157Z,99215.89
2018-07-31T08:01:04.148Z,99219.12
2018-07-31T08:03:32.437Z,99222.82
2018-07-31T08:06:00.269Z,99221.03
2018-07-31T08:08:28.139Z,99218.70
2018-07-31T08:10:56.077Z,99222.80
2018-07-31T08:13:23.978Z,99216.21
2018-07-31T08:15:51.751Z,99217.30
2018-07-31T08:18:19.514Z,99219.68
2018-07-31T08:20:47.374Z,99218.66
2018-07-31T08:23:15.181Z,99219.77
2018-07-31T08:25:43.072Z,99221.65
2018-07-31T08:28:10.822Z,99220.92
2018-07-31T08:30:38.516Z,99223.56
2018-07-31T08:33:06.901Z,99217.20
2018-07-31T08:35:34.725Z,99216.70
2018-07-31T08:39:05.484Z,99211.62
2018-07-31T08:41:33.339Z,99215.75
2018-07-31T08:44:01.247Z,99215.13
2018-07-31T08:46:29.195Z,99209.13
2018-07-31T08:48:56.976Z,99211.63
2018-07-31T08:51:24.853Z,99210.44
2018-07-31T08:53:52.593Z,99212.09
2018-07-31T08:56:20.510Z,99211.41
2018-07-31T08:58:48.296Z,99201.03
2018-07-31T09:01:16.094Z,99199.76
2018-07-31T09:03:44.029Z,99203.99
2018-07-31T09:06:11.851Z,99194.86
2018-07-31T09:08:39.807Z,99193.09
2018-07-31T09:11:07.616Z,99194.28
2018-07-31T09:13:35.548Z,99185.96
2018-07-31T09:16:03.381Z,99193.49
2018-07-31T09:18:31.195Z,99195.16
2018-07-31T09:20:59.126Z,99190.28
2018-07-31T09:23:26.975Z,99196.39
2018-07-31T09:25:58.944Z,99197.77
2018-07-31T09:28:27.308Z,99196.78
2018-07-31T09:31:00.537Z,99192.52
2018-07-31T09:33:28.384Z,99201.63
2018-07-31T09:35:56.151Z,99202.23
2018-07-31T09:39:26.792Z,99199.59
2018-07-31T09:41:54.686Z,99200.13
2018-07-31T09:44:22.520Z,99201.83
2018-07-31T09:46:50.381Z,99196.81
2018-07-31T09:49:18.125Z,99202.04
2018-07-31T09:51:46.034Z,99194.23
2018-07-31T09:54:13.906Z,99193.86
2018-07-31T09:56:41.746Z,99189.41
2018-07-31T09:59:09.688Z,99183.91
2018-07-31T10:01:37.639Z,99182.97
2018-07-31T10:04:05.687Z,99177.52
2018-07-31T10:06:33.449Z,99173.98
2018-07-31T10:09:01.685Z,99175.69
2018-07-31T10:11:29.857Z,99167.68
2018-07-31T10:13:57.786Z,99171.52
2018-07-31T10:16:25.666Z,99178.58
2018-07-31T10:18:53.531Z,99181.59
2018-07-31T10:21:21.386Z,99178.91
2018-07-31T10:23:49.246Z,99183.28
2018-07-31T10:26:17.005Z,99189.77
2018-07-31T10:28:44.923Z,99184.81
2018-07-31T10:31:12.691Z,99183.92
2018-07-31T10:33:40.472Z,99178.77
2018-07-31T10:36:08.277Z,99173.73
2018-07-31T10:38:36.151Z,99172.41
2018-07-31T10:41:03.991Z,99169.27
2018-07-31T10:43:31.691Z,99175.45
2018-07-31T10:46:00.043Z,99172.55
2018-07-31T10:49:30.632Z,99168.03
2018-07-31T10:51:58.394Z,99171.69
2018-07-31T10:54:26.222Z,99169.16
2018-07-31T10:56:54.136Z,99168.28
2018-07-31T10:59:22.537Z,99167.52
2018-07-31T11:01:50.483Z,99168.81
2018-07-31T11:04:18.431Z,99164.96
2018-07-31T11:06:46.387Z,99166.52
2018-07-31T11:09:14.247Z,99166.45
2018-07-31T11:11:42.199Z,99160.96
2018-07-31T11:14:10.522Z,99168.36
2018-07-31T11:16:38.385Z,99171.77
2018-07-31T11:19:06.319Z,99179.95
2018-07-31T11:21:34.262Z,99180.64
2018-07-31T11:24:02.075Z,99178.37
2018-07-31T11:26:30.990Z,99179.80
2018-07-31T11:28:58.887Z,99170.94
2018-07-31T11:31:26.675Z,99167.14
2018-07-31T11:33:54.326Z,99176.17
2018-07-31T11:36:22.348Z,99184.22
2018-07-31T11:38:50.113Z,99188.37
2018-07-31T11:41:17.803Z,99193.40
2018-07-31T11:43:45.973Z,99192.20
2018-07-31T11:46:13.839Z,99190.36
2018-07-31T11:48:41.559Z,99191.40
2018-07-31T11:51:09.288Z,99191.66
2018-07-31T11:53:36.935Z,99184.07
2018-07-31T11:56:04.774Z,99175.70
2018-07-31T11:58:32.785Z,99174.27
2018-07-31T12:01:00.558Z,99172.28
2018-07-31T12:03:28.464Z,99165.58
2018-07-31T12:05:56.509Z,99177.77
2018-07-31T12:08:24.502Z,99179.44
2018-07-31T12:10:52.361Z,99181.31
2018-07-31T12:13:20.223Z,99178.69
2018-07-31T12:15:48.122Z,99185.02
2018-07-31T12:18:15.969Z,99189.08
2018-07-31T12:20:43.861Z,99190.00
2018-07-31T12:23:11.797Z,99186.89
2018-07-31T12:25:39.558Z,99191.89
2018-07-31T12:28:07.405Z,99180.67
2018-07-31T12:30:35.307Z,99176.50
2018-07-31T12:33:03.341Z,99173.77
2018-07-31T12:35:31.254Z,99174.20
2018-07-31T12:37:59.029Z,99178.56
2018-07-31T12:40:26.907Z,99174.27
2018-07-31T12:42:54.871Z,99168.27
2018-07-31T12:45:22.710Z,99167.27
2018-07-31T12:47:50.553Z,99164.30
2018-07-31T12:50:18.437Z,99156.06
2018-07-31T12:52:46.392Z,99153.84
2018-07-31T12:55:14.277Z,99156.82
2018-07-31T12:57:42.399Z,99162.10
2018-07-31T13:00:10.388Z,99158.39
2018-07-31T13:02:38.337Z,99156.40
2018-07-31T13:05:06.937Z,99150.73
2018-07-31T13:07:34.748Z,99149.13
2018-07-31T13:10:02.595Z,99149.74
2018-07-31T13:12:30.463Z,99144.34
2018-07-31T13:14:58.360Z,99142.91
2018-07-31T13:17:26.227Z,99144.77
2018-07-31T13:19:54.206Z,99138.89
2018-07-31T13:22:22.150Z,99136.91
2018-07-31T13:24:50.093Z,99136.02
2018-07-31T13:27:18.379Z,99137.15
2018-07-31T13:29:46.538Z,99126.59
2018-07-31T13:32:14.452Z,99125.25
2018-07-31T13:34:42.283Z,99133.20
2018-07-31T13:37:10.466Z,99129.88
2018-07-31T13:39:38.330Z,99133.81
2018-07-31T13:42:06.513Z,99133.20
2018-07-31T13:44:34.310Z,99138.28
2018-07-31T13:47:02.170Z,99135.55
2018-07-31T13:49:30.172Z,99136.38
2018-07-31T13:51:58.111Z,99136.70
2018-07-31T13:54:25.903Z,99139.75
2018-07-31T13:56:53.849Z,99143.77
2018-07-31T13:59:21.653Z,99143.80
2018-07-31T14:01:49.551Z,99131.45
2018-07-31T14:04:17.481Z,99131.83
2018-07-31T14:06:45.504Z,99122.92
2018-07-31T14:09:13.348Z,99125.66
2018-07-31T14:11:41.235Z,99121.45
2018-07-31T14:14:09.177Z,99132.14
2018-07-31T14:16:37.291Z,99130.52
2018-07-31T14:19:05.645Z,99127.75
2018-07-31T14:21:33.497Z,99114.63
2018-07-31T14:24:01.400Z,99112.77
2018-07-31T14:26:29.732Z,99109.17
2018-07-31T14:28:57.872Z,99115.59
2018-07-31T14:31:25.623Z,99100.44
2018-07-31T14:33:53.734Z,99102.22
2018-07-31T14:36:21.877Z,99109.03
2018-07-31T14:38:49.888Z,99101.78
2018-07-31T14:41:17.956Z,99108.38
2018-07-31T14:43:45.973Z,99111.36
2018-07-31T14:46:14.023Z,99109.37
2018-07-31T14:48:43.037Z,99108.09
2018-07-31T14:51:10.804Z,99109.63
2018-07-31T14:53:38.917Z,99105.78
2018-07-31T14:56:06.856Z,99112.81
2018-07-31T14:58:34.678Z,99113.06
2018-07-31T15:01:02.603Z,99112.27
2018-07-31T15:03:30.517Z,99102.94
2018-07-31T15:05:58.392Z,99097.11
2018-07-31T15:08:26.366Z,99091.05
2018-07-31T15:10:54.629Z,99085.33
2018-07-31T15:13:22.603Z,99085.87
2018-07-31T15:15:50.531Z,99088.20
2018-07-31T15:18:18.374Z,99093.89
2018-07-31T15:20:46.302Z,99102.67
2018-07-31T15:23:14.023Z,99104.80
2018-07-31T15:25:41.991Z,99097.69
2018-07-31T15:28:09.992Z,99103.53
2018-07-31T15:30:37.725Z,99103.45
2018-07-31T15:33:05.717Z,99102.01
2018-07-31T15:35:33.622Z,99103.67
2018-07-31T15:38:01.474Z,99104.30
2018-07-31T15:40:29.342Z,99103.69
2018-07-31T15:42:57.222Z,99109.87
2018-07-31T15:45:25.273Z,99104.03
2018-07-31T15:47:54.185Z,99102.75
2018-07-31T15:50:22.204Z,99107.48
2018-07-31T15:52:50.100Z,99108.42
2018-07-31T15:55:18.081Z,99117.62
2018-07-31T15:57:45.958Z,99129.37
2018-07-31T16:00:14.232Z,99137.23
2018-07-31T16:02:42.374Z,99137.50
2018-07-31T16:05:10.788Z,99139.07
2018-07-31T16:07:39.603Z,99141.84
2018-07-31T16:10:07.623Z,99155.53
2018-07-31T16:12:35.786Z,99155.94
2018-07-31T16:15:03.921Z,99170.28
2018-07-31T16:17:32.016Z,99171.64
2018-07-31T16:20:01.137Z,99177.02
2018-07-31T16:22:29.235Z,99173.73
2018-07-31T16:24:57.568Z,99171.95
2018-07-31T16:27:25.375Z,99173.52
2018-07-31T16:29:53.308Z,99178.13
2018-07-31T16:32:21.840Z,99175.19
2018-07-31T16:34:49.756Z,99176.41
2018-07-31T16:37:17.712Z,99175.77
2018-07-31T16:39:46.288Z,99168.31
2018-07-31T16:42:14.278Z,99169.09
2018-07-31T16:44:42.379Z,99170.03
2018-07-31T16:47:10.416Z,99178.28
2018-07-31T16:49:38.339Z,99182.92
2018-07-31T16:52:06.424Z,99181.95
2018-07-31T16:54:34.592Z,99179.84
2018-07-31T16:57:02.476Z,99182.20
2018-07-31T16:59:30.180Z,99181.72
2018-07-31T17:01:58.374Z,99184.47
2018-07-31T17:04:26.251Z,99181.03
2018-07-31T17:06:54.208Z,99185.70
2018-07-31T17:09:22.266Z,99185.97
2018-07-31T17:11:50.219Z,99190.58
2018-07-31T17:14:18.225Z,99192.34
2018-07-31T17:16:46.841Z,99193.45
2018-07-31T17:19:14.783Z,99196.02
2018-07-31T17:21:42.752Z,99209.78
2018-07-31T17:24:10.788Z,99201.32
2018-07-31T17:26:38.659Z,99204.16
2018-07-31T17:29:06.476Z,99201.92
2018-07-31T17:31:34.482Z,99201.66
2018-07-31T17:34:02.457Z,99199.98
2018-07-31T17:36:30.289Z,99211.43
2018-07-31T17:38:58.252Z,99212.05
2018-07-31T17:41:26.222Z,99224.19
2018-07-31T17:43:54.132Z,99232.42
2018-07-31T17:46:22.151Z,99229.16
2018-07-31T17:48:49.990Z,99226.75
2018-07-31T17:51:17.945Z,99217.63
2018-07-31T17:53:45.946Z,99218.11
2018-07-31T17:56:13.838Z,99220.60
2018-07-31T17:58:41.761Z,99215.06
2018-07-31T18:01:09.824Z,99216.13
2018-07-31T18:03:37.973Z,99216.52
2018-07-31T18:06:05.962Z,99225.60
2018-07-31T18:15:18.740Z,99230.22
2018-07-31T18:17:46.760Z,99234.00
2018-07-31T18:20:14.836Z,99236.91
2018-07-31T18:22:42.810Z,99238.10
2018-07-31T18:25:10.765Z,99245.95
2018-07-31T18:27:38.865Z,99241.52
2018-07-31T18:30:07.048Z,99252.15
2018-07-31T18:32:34.858Z,99251.37
2018-07-31T18:35:02.874Z,99263.05
2018-07-31T18:37:30.881Z,99264.78
2018-07-31T18:39:59.006Z,99255.69
2018-07-31T18:42:27.099Z,99264.48
2018-07-31T18:44:55.332Z,99259.31
2018-07-31T18:47:23.333Z,99266.45
2018-07-31T18:49:51.299Z,99264.92
2018-07-31T18:52:19.267Z,99259.86
2018-07-31T18:54:47.143Z,99260.23
2018-07-31T18:57:15.178Z,99255.69
2018-07-31T18:59:43.356Z,99257.84
2018-07-31T19:02:11.418Z,99260.61
2018-07-31T19:04:39.590Z,99271.14
2018-07-31T19:07:07.903Z,99271.66
2018-07-31T19:09:35.924Z,99273.39
2018-07-31T19:12:04.021Z,99272.37
2018-07-31T19:14:31.919Z,99267.80
2018-07-31T19:16:59.936Z,99262.37
2018-07-31T19:19:27.726Z,99265.78
2018-07-31T19:21:55.791Z,99267.66
2018-07-31T19:24:23.800Z,99267.71
2018-07-31T19:26:51.843Z,99261.36
2018-07-31T19:29:20.118Z,99262.67
2018-07-31T19:31:48.331Z,99265.09
2018-07-31T19:34:17.250Z,99261.41
2018-07-31T19:36:45.393Z,99261.05
2018-07-31T19:39:13.459Z,99268.45
2018-07-31T19:41:41.612Z,99274.55
2018-07-31T19:44:09.476Z,99273.20
2018-07-31T19:46:37.380Z,99270.36
2018-07-31T19:49:05.458Z,99268.67
2018-07-31T19:51:33.386Z,99257.55
2018-07-31T19:54:01.465Z,99256.16
2018-07-31T19:56:29.590Z,99253.69
2018-07-31T19:58:57.551Z,99251.34
2018-07-31T20:01:25.471Z,99245.30
2018-07-31T20:03:53.515Z,99249.05
2018-07-31T20:06:21.475Z,99248.91
2018-07-31T20:08:49.420Z,99251.14
2018-07-31T20:11:17.434Z,99251.50
2018-07-31T20:13:45.351Z,99250.52
2018-07-31T20:16:13.889Z,99253.17
2018-07-31T20:18:42.146Z,99257.59
2018-07-31T20:21:10.372Z,99256.45
2018-07-31T20:23:38.538Z,99259.15
2018-07-31T20:26:06.737Z,99261.52
2018-07-31T20:28:34.749Z,99263.70
2018-07-31T20:31:03.005Z,99268.42
2018-07-31T20:33:31.219Z,99269.95
2018-07-31T20:35:59.634Z,99276.70
2018-07-31T20:38:31.409Z,99283.63
2018-07-31T20:41:03.357Z,99273.81
2018-07-31T20:43:35.667Z,99272.98
2018-07-31T20:46:07.769Z,99267.09
2018-07-31T20:48:39.520Z,99272.16
2018-07-31T20:51:11.012Z,99274.89
2018-07-31T20:53:40.951Z,99272.52
2018-07-31T20:56:08.823Z,99280.47
2018-07-31T20:58:36.895Z,99273.53
2018-07-31T21:01:04.828Z,99272.70
2018-07-31T21:03:32.717Z,99275.72
2018-07-31T21:12:45.831Z,99283.55
2018-07-31T21:15:14.879Z,99282.38
2018-07-31T21:17:43.009Z,99281.71
2018-07-31T21:20:11.081Z,99277.66
2018-07-31T21:22:39.202Z,99285.76
2018-07-31T21:25:07.444Z,99285.76
2018-07-31T21:27:35.507Z,99277.67
2018-07-31T21:30:03.732Z,99272.09
2018-07-31T21:32:31.758Z,99271.59
2018-07-31T21:34:59.600Z,99270.25
2018-07-31T21:37:27.464Z,99270.25
2018-07-31T21:39:55.532Z,99271.11
2018-07-31T21:42:23.917Z,99269.43
2018-07-31T21:44:51.801Z,99269.77
2018-07-31T21:47:19.793Z,99269.59
2018-07-31T21:49:48.292Z,99272.80
2018-07-31T21:52:16.379Z,99276.00
2018-07-31T21:54:44.371Z,99276.02
2018-07-31T21:57:12.646Z,99270.61
2018-07-31T21:59:40.499Z,99277.02
2018-07-31T22:02:08.480Z,99270.80
2018-07-31T22:04:36.626Z,99269.80
2018-07-31T22:07:04.545Z,99269.78
2018-07-31T22:09:37.385Z,99267.05
2018-07-31T22:12:05.392Z,99268.75
2018-07-31T22:14:33.503Z,99258.80
2018-07-31T22:17:01.500Z,99257.13
2018-07-31T22:19:29.432Z,99256.13
2018-07-31T22:21:57.443Z,99257.13
2018-07-31T22:24:25.275Z,99257.14
2018-07-31T22:26:53.263Z,99253.94
2018-07-31T22:36:05.652Z,99242.62
2018-07-31T22:38:33.565Z,99239.59
2018-07-31T22:41:01.307Z,99242.79
2018-07-31T22:43:29.733Z,99242.65
2018-07-31T22:45:57.594Z,99230.84
2018-07-31T22:48:25.726Z,99234.72
2018-07-31T22:50:53.833Z,99235.22
2018-07-31T22:53:21.818Z,99245.81
2018-07-31T22:55:49.814Z,99248.68
2018-07-31T22:58:17.772Z,99245.31
2018-07-31T23:00:45.734Z,99243.28
2018-07-31T23:03:13.608Z,99246.14
2018-07-31T23:05:41.710Z,99251.33
2018-07-31T23:08:09.580Z,99247.97
2018-07-31T23:10:37.675Z,99253.04
2018-07-31T23:13:06.208Z,99256.41
2018-07-31T23:15:34.269Z,99261.45
2018-07-31T23:18:02.402Z,99265.16
2018-07-31T23:20:30.826Z,99256.41
2018-07-31T23:22:58.873Z,99252.53
2018-07-31T23:25:26.916Z,99254.39
2018-07-31T23:27:55.443Z,99252.53
2018-07-31T23:30:23.352Z,99254.89
2018-07-31T23:32:51.268Z,99255.37
2018-07-31T23:35:19.242Z,99254.83
2018-07-31T23:37:47.231Z,99254.33
2018-07-31T23:40:15.426Z,99259.21
2018-07-31T23:42:43.862Z,99257.83
2018-07-31T23:45:11.906Z,99258.17
2018-07-31T23:47:39.872Z,99255.61
2018-07-31T23:50:08.281Z,99257.30
2018-07-31T23:52:36.148Z,99259.48
2018-07-31T23:55:04.200Z,99259.15
2018-07-31T23:57:32.278Z,99267.39
